sensor_id;sensor_type;location;lat;lon;timestamp;temperature;humidity
4279;DHT22;2153;47.744;10.580;2023-06-10T00:01:36;11.40;99.90
4279;DHT22;2153;47.744;10.580;2023-06-10T00:04:03;11.50;99.90
4279;DHT22;2153;47.744;10.580;2023-06-10T00:06:30;11.30;99.90
4279;DHT22;2153;47.744;10.580;2023-06-10T00:09:02;11.10;99.90
4279;DHT22;2153;47.744;10.580;2023-06-10T00:11:31;11.10;99.90
4279;DHT22;2153;47.744;10.580;2023-06-10T00:13:57;10.90;99.90
4279;DHT22;2153;47.744;10.580;2023-06-10T00:16:24;10.90;99.90
4279;DHT22;2153;47.744;10.580;2023-06-10T00:18:51;11.00;99.90
4279;DHT22;2153;47.744;10.580;2023-06-10T00:21:18;11.00;99.90
4279;DHT22;2153;47.744;10.580;2023-06-10T00:23:44;11.10;99.90
4279;DHT22;2153;47.744;10.580;2023-06-10T00:26:12;11.10;99.90
4279;DHT22;2153;47.744;10.580;2023-06-10T00:28:39;11.20;99.90
4279;DHT22;2153;47.744;10.580;2023-06-10T00:31:06;11.10;99.90
4279;DHT22;2153;47.744;10.580;2023-06-10T00:33:32;11.10;99.90
4279;DHT22;2153;47.744;10.580;2023-06-10T00:35:59;11.10;99.90
4279;DHT22;2153;47.744;10.580;2023-06-10T00:38:25;11.00;99.90
4279;DHT22;2153;47.744;10.580;2023-06-10T00:40:52;10.80;99.90
4279;DHT22;2153;47.744;10.580;2023-06-10T00:43:20;10.70;99.90
4279;DHT22;2153;47.744;10.580;2023-06-10T00:45:47;10.70;99.90
4279;DHT22;2153;47.744;10.580;2023-06-10T00:48:13;10.70;99.90
4279;DHT22;2153;47.744;10.580;2023-06-10T00:50:40;10.70;99.90
4279;DHT22;2153;47.744;10.580;2023-06-10T00:53:07;10.80;99.90
4279;DHT22;2153;47.744;10.580;2023-06-10T00:55:35;10.70;99.90
4279;DHT22;2153;47.744;10.580;2023-06-10T00:58:03;10.70;99.90
4279;DHT22;2153;47.744;10.580;2023-06-10T01:00:31;10.50;99.90
4279;DHT22;2153;47.744;10.580;2023-06-10T01:02:58;10.40;99.90
4279;DHT22;2153;47.744;10.580;2023-06-10T01:05:25;10.40;99.90
4279;DHT22;2153;47.744;10.580;2023-06-10T01:08:00;10.30;99.90
4279;DHT22;2153;47.744;10.580;2023-06-10T01:10:33;10.20;99.90
4279;DHT22;2153;47.744;10.580;2023-06-10T01:13:02;10.20;99.90
4279;DHT22;2153;47.744;10.580;2023-06-10T01:15:30;10.20;99.90
4279;DHT22;2153;47.744;10.580;2023-06-10T01:17:58;10.10;99.90
4279;DHT22;2153;47.744;10.580;2023-06-10T01:20:25;10.10;99.90
4279;DHT22;2153;47.744;10.580;2023-06-10T01:22:55;10.20;99.90
4279;DHT22;2153;47.744;10.580;2023-06-10T01:25:23;10.20;99.90
4279;DHT22;2153;47.744;10.580;2023-06-10T01:27:55;10.30;99.90
4279;DHT22;2153;47.744;10.580;2023-06-10T01:30:27;10.30;99.90
4279;DHT22;2153;47.744;10.580;2023-06-10T01:32:58;10.20;99.90
4279;DHT22;2153;47.744;10.580;2023-06-10T01:35:27;10.10;99.90
4279;DHT22;2153;47.744;10.580;2023-06-10T01:37:56;10.00;99.90
4279;DHT22;2153;47.744;10.580;2023-06-10T01:40:25;9.90;99.90
4279;DHT22;2153;47.744;10.580;2023-06-10T01:42:52;9.90;99.90
4279;DHT22;2153;47.744;10.580;2023-06-10T01:45:19;9.90;99.90
4279;DHT22;2153;47.744;10.580;2023-06-10T01:47:46;9.90;99.90
4279;DHT22;2153;47.744;10.580;2023-06-10T01:50:12;9.90;99.90
4279;DHT22;2153;47.744;10.580;2023-06-10T01:52:39;9.90;99.90
4279;DHT22;2153;47.744;10.580;2023-06-10T01:55:08;9.70;99.90
4279;DHT22;2153;47.744;10.580;2023-06-10T01:57:34;9.70;99.90
4279;DHT22;2153;47.744;10.580;2023-06-10T02:00:01;9.70;99.90
4279;DHT22;2153;47.744;10.580;2023-06-10T02:02:28;9.70;99.90
4279;DHT22;2153;47.744;10.580;2023-06-10T02:04:55;9.70;99.90
4279;DHT22;2153;47.744;10.580;2023-06-10T02:07:22;9.70;99.90
4279;DHT22;2153;47.744;10.580;2023-06-10T02:09:49;9.70;99.90
4279;DHT22;2153;47.744;10.580;2023-06-10T02:12:17;9.70;99.90
4279;DHT22;2153;47.744;10.580;2023-06-10T02:14:44;9.70;99.90
4279;DHT22;2153;47.744;10.580;2023-06-10T02:17:10;9.70;99.90
4279;DHT22;2153;47.744;10.580;2023-06-10T02:19:40;9.70;99.90
4279;DHT22;2153;47.744;10.580;2023-06-10T02:22:08;9.80;99.90
4279;DHT22;2153;47.744;10.580;2023-06-10T02:24:35;9.80;99.90
4279;DHT22;2153;47.744;10.580;2023-06-10T02:27:03;9.80;99.90
4279;DHT22;2153;47.744;10.580;2023-06-10T02:29:33;9.70;99.90
4279;DHT22;2153;47.744;10.580;2023-06-10T02:32:00;9.50;99.90
4279;DHT22;2153;47.744;10.580;2023-06-10T02:34:26;9.30;99.90
4279;DHT22;2153;47.744;10.580;2023-06-10T02:36:54;9.30;99.90
4279;DHT22;2153;47.744;10.580;2023-06-10T02:39:21;9.30;99.90
4279;DHT22;2153;47.744;10.580;2023-06-10T02:41:47;9.20;99.90
4279;DHT22;2153;47.744;10.580;2023-06-10T02:44:14;9.20;99.90
4279;DHT22;2153;47.744;10.580;2023-06-10T02:46:42;9.20;99.90
4279;DHT22;2153;47.744;10.580;2023-06-10T02:49:08;9.20;99.90
4279;DHT22;2153;47.744;10.580;2023-06-10T02:51:35;9.10;99.90
4279;DHT22;2153;47.744;10.580;2023-06-10T02:54:02;9.10;99.90
4279;DHT22;2153;47.744;10.580;2023-06-10T02:56:28;9.10;99.90
4279;DHT22;2153;47.744;10.580;2023-06-10T02:58:55;9.20;99.90
4279;DHT22;2153;47.744;10.580;2023-06-10T03:01:22;9.30;99.90
4279;DHT22;2153;47.744;10.580;2023-06-10T03:03:49;9.30;99.90
4279;DHT22;2153;47.744;10.580;2023-06-10T03:06:16;9.00;99.90
4279;DHT22;2153;47.744;10.580;2023-06-10T03:08:43;9.00;99.90
4279;DHT22;2153;47.744;10.580;2023-06-10T03:11:10;9.00;99.90
4279;DHT22;2153;47.744;10.580;2023-06-10T03:13:38;9.10;99.90
4279;DHT22;2153;47.744;10.580;2023-06-10T03:16:04;9.00;99.90
4279;DHT22;2153;47.744;10.580;2023-06-10T03:18:31;9.00;99.90
4279;DHT22;2153;47.744;10.580;2023-06-10T03:20:59;9.00;99.90
4279;DHT22;2153;47.744;10.580;2023-06-10T03:23:25;8.90;99.90
4279;DHT22;2153;47.744;10.580;2023-06-10T03:25:52;8.80;99.90
4279;DHT22;2153;47.744;10.580;2023-06-10T03:28:20;8.80;99.90
4279;DHT22;2153;47.744;10.580;2023-06-10T03:30:46;8.80;99.90
4279;DHT22;2153;47.744;10.580;2023-06-10T03:33:13;8.90;99.90
4279;DHT22;2153;47.744;10.580;2023-06-10T03:35:40;8.90;99.90
4279;DHT22;2153;47.744;10.580;2023-06-10T03:38:08;8.90;99.90
4279;DHT22;2153;47.744;10.580;2023-06-10T03:40:34;8.70;99.90
4279;DHT22;2153;47.744;10.580;2023-06-10T03:43:01;8.70;99.90
4279;DHT22;2153;47.744;10.580;2023-06-10T03:45:27;8.70;99.90
4279;DHT22;2153;47.744;10.580;2023-06-10T03:47:54;8.80;99.90
4279;DHT22;2153;47.744;10.580;2023-06-10T03:50:20;8.90;99.90
4279;DHT22;2153;47.744;10.580;2023-06-10T03:52:48;8.90;99.90
4279;DHT22;2153;47.744;10.580;2023-06-10T03:55:16;8.80;99.90
4279;DHT22;2153;47.744;10.580;2023-06-10T03:57:43;9.00;99.90
4279;DHT22;2153;47.744;10.580;2023-06-10T04:00:10;9.00;99.90
4279;DHT22;2153;47.744;10.580;2023-06-10T04:02:37;9.00;99.90
4279;DHT22;2153;47.744;10.580;2023-06-10T04:05:07;9.00;99.90
4279;DHT22;2153;47.744;10.580;2023-06-10T04:07:33;9.10;99.90
4279;DHT22;2153;47.744;10.580;2023-06-10T04:10:00;9.30;99.90
4279;DHT22;2153;47.744;10.580;2023-06-10T04:12:29;9.40;99.90
4279;DHT22;2153;47.744;10.580;2023-06-10T04:14:55;9.50;99.90
4279;DHT22;2153;47.744;10.580;2023-06-10T04:17:22;9.60;99.90
4279;DHT22;2153;47.744;10.580;2023-06-10T04:19:48;9.70;99.90
4279;DHT22;2153;47.744;10.580;2023-06-10T04:22:15;9.80;99.90
4279;DHT22;2153;47.744;10.580;2023-06-10T04:24:43;10.00;99.90
4279;DHT22;2153;47.744;10.580;2023-06-10T04:27:09;10.10;99.90
4279;DHT22;2153;47.744;10.580;2023-06-10T04:29:37;10.30;99.90
4279;DHT22;2153;47.744;10.580;2023-06-10T04:32:04;10.50;99.90
4279;DHT22;2153;47.744;10.580;2023-06-10T04:34:32;10.60;99.90
4279;DHT22;2153;47.744;10.580;2023-06-10T04:36:58;10.80;99.90
4279;DHT22;2153;47.744;10.580;2023-06-10T04:39:25;10.90;99.90
4279;DHT22;2153;47.744;10.580;2023-06-10T04:41:52;11.10;99.90
4279;DHT22;2153;47.744;10.580;2023-06-10T04:44:19;11.20;99.90
4279;DHT22;2153;47.744;10.580;2023-06-10T04:46:47;11.30;99.90
4279;DHT22;2153;47.744;10.580;2023-06-10T04:49:14;11.70;99.90
4279;DHT22;2153;47.744;10.580;2023-06-10T04:51:40;11.80;99.90
4279;DHT22;2153;47.744;10.580;2023-06-10T04:54:07;11.70;99.90
4279;DHT22;2153;47.744;10.580;2023-06-10T04:56:33;11.80;99.90
4279;DHT22;2153;47.744;10.580;2023-06-10T04:59:00;11.70;99.90
4279;DHT22;2153;47.744;10.580;2023-06-10T05:01:27;11.80;99.90
4279;DHT22;2153;47.744;10.580;2023-06-10T05:03:55;12.10;99.90
4279;DHT22;2153;47.744;10.580;2023-06-10T05:06:21;12.30;99.90
4279;DHT22;2153;47.744;10.580;2023-06-10T05:08:48;12.60;99.90
4279;DHT22;2153;47.744;10.580;2023-06-10T05:11:14;12.80;99.90
4279;DHT22;2153;47.744;10.580;2023-06-10T05:13:41;12.90;99.90
4279;DHT22;2153;47.744;10.580;2023-06-10T05:16:08;13.10;99.90
4279;DHT22;2153;47.744;10.580;2023-06-10T05:18:34;13.30;99.90
4279;DHT22;2153;47.744;10.580;2023-06-10T05:21:02;13.30;99.90
4279;DHT22;2153;47.744;10.580;2023-06-10T05:23:29;13.50;99.90
4279;DHT22;2153;47.744;10.580;2023-06-10T05:25:55;13.70;99.90
4279;DHT22;2153;47.744;10.580;2023-06-10T05:28:22;13.90;99.90
4279;DHT22;2153;47.744;10.580;2023-06-10T05:30:48;14.10;99.90
4279;DHT22;2153;47.744;10.580;2023-06-10T05:33:15;14.30;99.90
4279;DHT22;2153;47.744;10.580;2023-06-10T05:35:41;14.40;99.90
4279;DHT22;2153;47.744;10.580;2023-06-10T05:38:09;14.60;99.90
4279;DHT22;2153;47.744;10.580;2023-06-10T05:40:36;14.80;99.90
4279;DHT22;2153;47.744;10.580;2023-06-10T05:43:02;15.00;99.90
4279;DHT22;2153;47.744;10.580;2023-06-10T05:45:29;15.00;99.90
4279;DHT22;2153;47.744;10.580;2023-06-10T05:47:55;15.30;99.90
4279;DHT22;2153;47.744;10.580;2023-06-10T05:50:23;15.60;99.90
4279;DHT22;2153;47.744;10.580;2023-06-10T05:52:50;15.80;99.90
4279;DHT22;2153;47.744;10.580;2023-06-10T05:55:20;15.80;99.90
4279;DHT22;2153;47.744;10.580;2023-06-10T05:57:46;15.80;99.90
4279;DHT22;2153;47.744;10.580;2023-06-10T06:00:13;16.00;99.90
4279;DHT22;2153;47.744;10.580;2023-06-10T06:02:40;16.20;99.90
4279;DHT22;2153;47.744;10.580;2023-06-10T06:05:07;16.40;99.90
4279;DHT22;2153;47.744;10.580;2023-06-10T06:07:33;16.50;99.90
4279;DHT22;2153;47.744;10.580;2023-06-10T06:10:00;16.50;99.90
4279;DHT22;2153;47.744;10.580;2023-06-10T06:12:27;16.50;99.90
4279;DHT22;2153;47.744;10.580;2023-06-10T06:14:54;16.50;99.90
4279;DHT22;2153;47.744;10.580;2023-06-10T06:17:20;16.50;99.90
4279;DHT22;2153;47.744;10.580;2023-06-10T06:19:47;16.60;99.90
4279;DHT22;2153;47.744;10.580;2023-06-10T06:22:13;16.90;99.90
4279;DHT22;2153;47.744;10.580;2023-06-10T06:24:40;17.20;99.90
4279;DHT22;2153;47.744;10.580;2023-06-10T06:27:06;17.40;99.90
4279;DHT22;2153;47.744;10.580;2023-06-10T06:29:34;17.50;99.90
4279;DHT22;2153;47.744;10.580;2023-06-10T06:32:01;17.60;99.90
4279;DHT22;2153;47.744;10.580;2023-06-10T06:34:27;17.90;99.90
4279;DHT22;2153;47.744;10.580;2023-06-10T06:36:54;18.40;99.90
4279;DHT22;2153;47.744;10.580;2023-06-10T06:39:20;18.50;99.90
4279;DHT22;2153;47.744;10.580;2023-06-10T06:41:47;18.70;99.90
4279;DHT22;2153;47.744;10.580;2023-06-10T06:44:13;18.80;99.90
4279;DHT22;2153;47.744;10.580;2023-06-10T06:46:41;18.60;99.90
4279;DHT22;2153;47.744;10.580;2023-06-10T06:49:08;18.70;99.90
4279;DHT22;2153;47.744;10.580;2023-06-10T06:51:34;19.30;99.90
4279;DHT22;2153;47.744;10.580;2023-06-10T06:54:02;19.90;99.90
4279;DHT22;2153;47.744;10.580;2023-06-10T06:56:30;19.80;99.90
4279;DHT22;2153;47.744;10.580;2023-06-10T06:58:57;19.80;99.90
4279;DHT22;2153;47.744;10.580;2023-06-10T07:01:23;20.20;99.90
4279;DHT22;2153;47.744;10.580;2023-06-10T07:03:51;20.20;99.90
4279;DHT22;2153;47.744;10.580;2023-06-10T07:06:18;20.70;99.90
4279;DHT22;2153;47.744;10.580;2023-06-10T07:08:44;20.70;99.90
4279;DHT22;2153;47.744;10.580;2023-06-10T07:11:11;20.70;99.90
4279;DHT22;2153;47.744;10.580;2023-06-10T07:13:38;20.50;99.90
4279;DHT22;2153;47.744;10.580;2023-06-10T07:16:04;20.70;99.90
4279;DHT22;2153;47.744;10.580;2023-06-10T07:18:31;21.50;99.90
4279;DHT22;2153;47.744;10.580;2023-06-10T07:20:59;21.80;99.90
4279;DHT22;2153;47.744;10.580;2023-06-10T07:23:26;21.90;99.90
4279;DHT22;2153;47.744;10.580;2023-06-10T07:25:52;22.40;99.90
4279;DHT22;2153;47.744;10.580;2023-06-10T07:28:19;22.60;99.90
4279;DHT22;2153;47.744;10.580;2023-06-10T07:30:45;22.40;99.90
4279;DHT22;2153;47.744;10.580;2023-06-10T07:33:12;22.80;99.90
4279;DHT22;2153;47.744;10.580;2023-06-10T07:35:39;21.90;99.90
4279;DHT22;2153;47.744;10.580;2023-06-10T07:38:09;22.50;99.90
4279;DHT22;2153;47.744;10.580;2023-06-10T07:40:36;23.00;99.90
4279;DHT22;2153;47.744;10.580;2023-06-10T07:43:03;23.00;99.90
4279;DHT22;2153;47.744;10.580;2023-06-10T07:45:29;23.40;99.90
4279;DHT22;2153;47.744;10.580;2023-06-10T07:47:56;23.00;99.90
4279;DHT22;2153;47.744;10.580;2023-06-10T07:50:22;23.40;99.90
4279;DHT22;2153;47.744;10.580;2023-06-10T07:52:49;22.90;99.90
4279;DHT22;2153;47.744;10.580;2023-06-10T07:55:17;22.60;99.90
4279;DHT22;2153;47.744;10.580;2023-06-10T07:57:44;22.00;99.90
4279;DHT22;2153;47.744;10.580;2023-06-10T08:00:11;21.80;99.90
4279;DHT22;2153;47.744;10.580;2023-06-10T08:02:38;22.30;99.90
4279;DHT22;2153;47.744;10.580;2023-06-10T08:05:05;22.30;99.90
4279;DHT22;2153;47.744;10.580;2023-06-10T08:07:32;22.10;99.90
4279;DHT22;2153;47.744;10.580;2023-06-10T08:09:58;22.30;99.90
4279;DHT22;2153;47.744;10.580;2023-06-10T08:12:26;23.40;99.90
4279;DHT22;2153;47.744;10.580;2023-06-10T08:14:53;23.60;99.90
4279;DHT22;2153;47.744;10.580;2023-06-10T08:17:20;23.00;99.90
4279;DHT22;2153;47.744;10.580;2023-06-10T08:19:47;23.30;99.90
4279;DHT22;2153;47.744;10.580;2023-06-10T08:22:13;24.00;99.90
4279;DHT22;2153;47.744;10.580;2023-06-10T08:24:40;24.30;99.90
4279;DHT22;2153;47.744;10.580;2023-06-10T08:27:07;24.50;99.90
4279;DHT22;2153;47.744;10.580;2023-06-10T08:29:35;24.90;99.90
4279;DHT22;2153;47.744;10.580;2023-06-10T08:32:01;24.90;90.90
4279;DHT22;2153;47.744;10.580;2023-06-10T08:34:28;24.90;76.00
4279;DHT22;2153;47.744;10.580;2023-06-10T08:36:55;24.60;91.80
4279;DHT22;2153;47.744;10.580;2023-06-10T08:39:22;23.30;92.80
4279;DHT22;2153;47.744;10.580;2023-06-10T08:42:00;22.80;99.90
4279;DHT22;2153;47.744;10.580;2023-06-10T08:44:31;22.60;99.90
4279;DHT22;2153;47.744;10.580;2023-06-10T08:47:00;22.20;99.90
4279;DHT22;2153;47.744;10.580;2023-06-10T08:49:30;22.40;99.90
4279;DHT22;2153;47.744;10.580;2023-06-10T08:52:02;22.30;99.90
4279;DHT22;2153;47.744;10.580;2023-06-10T08:54:32;22.30;99.90
4279;DHT22;2153;47.744;10.580;2023-06-10T08:57:02;22.90;99.90
4279;DHT22;2153;47.744;10.580;2023-06-10T08:59:31;23.40;99.90
4279;DHT22;2153;47.744;10.580;2023-06-10T09:02:00;23.90;99.90
4279;DHT22;2153;47.744;10.580;2023-06-10T09:04:27;24.50;92.80
4279;DHT22;2153;47.744;10.580;2023-06-10T09:06:54;24.50;94.80
4279;DHT22;2153;47.744;10.580;2023-06-10T09:09:23;24.60;99.10
4279;DHT22;2153;47.744;10.580;2023-06-10T09:11:49;24.60;92.00
4279;DHT22;2153;47.744;10.580;2023-06-10T09:14:16;23.80;99.20
4279;DHT22;2153;47.744;10.580;2023-06-10T09:16:43;24.50;99.90
4279;DHT22;2153;47.744;10.580;2023-06-10T09:19:13;24.50;84.10
4279;DHT22;2153;47.744;10.580;2023-06-10T09:21:40;23.20;99.90
4279;DHT22;2153;47.744;10.580;2023-06-10T09:24:07;23.50;99.90
4279;DHT22;2153;47.744;10.580;2023-06-10T09:26:33;24.30;99.90
4279;DHT22;2153;47.744;10.580;2023-06-10T09:29:03;24.90;87.20
4279;DHT22;2153;47.744;10.580;2023-06-10T09:31:31;24.50;98.40
4279;DHT22;2153;47.744;10.580;2023-06-10T09:34:07;24.80;90.00
4279;DHT22;2153;47.744;10.580;2023-06-10T09:36:37;25.30;78.30
4279;DHT22;2153;47.744;10.580;2023-06-10T09:39:06;25.70;71.20
4279;DHT22;2153;47.744;10.580;2023-06-10T09:41:40;26.30;69.40
4279;DHT22;2153;47.744;10.580;2023-06-10T09:44:11;25.50;40.20
4279;DHT22;2153;47.744;10.580;2023-06-10T09:46:38;25.30;39.00
4279;DHT22;2153;47.744;10.580;2023-06-10T09:49:05;25.40;77.00
4279;DHT22;2153;47.744;10.580;2023-06-10T09:51:32;25.70;46.10
4279;DHT22;2153;47.744;10.580;2023-06-10T09:54:02;24.70;31.50
4279;DHT22;2153;47.744;10.580;2023-06-10T09:56:33;24.90;51.40
4279;DHT22;2153;47.744;10.580;2023-06-10T09:59:00;25.80;49.10
4279;DHT22;2153;47.744;10.580;2023-06-10T10:01:27;25.70;34.10
4279;DHT22;2153;47.744;10.580;2023-06-10T10:03:54;25.20;34.30
4279;DHT22;2153;47.744;10.580;2023-06-10T10:06:21;25.50;27.50
4279;DHT22;2153;47.744;10.580;2023-06-10T10:08:49;25.20;42.50
4279;DHT22;2153;47.744;10.580;2023-06-10T10:11:18;25.50;25.90
4279;DHT22;2153;47.744;10.580;2023-06-10T10:13:48;25.00;42.60
4279;DHT22;2153;47.744;10.580;2023-06-10T10:16:16;24.90;36.00
4279;DHT22;2153;47.744;10.580;2023-06-10T10:18:46;25.10;59.10
4279;DHT22;2153;47.744;10.580;2023-06-10T10:21:16;26.20;83.20
4279;DHT22;2153;47.744;10.580;2023-06-10T10:23:53;27.20;32.00
4279;DHT22;2153;47.744;10.580;2023-06-10T10:26:21;27.40;18.10
4279;DHT22;2153;47.744;10.580;2023-06-10T10:28:53;27.90;39.50
4279;DHT22;2153;47.744;10.580;2023-06-10T10:31:27;27.40;18.70
4279;DHT22;2153;47.744;10.580;2023-06-10T10:33:58;27.40;49.90
4279;DHT22;2153;47.744;10.580;2023-06-10T10:36:25;27.50;5.60
4279;DHT22;2153;47.744;10.580;2023-06-10T10:38:52;26.90;10.80
4279;DHT22;2153;47.744;10.580;2023-06-10T10:41:21;27.40;53.40
4279;DHT22;2153;47.744;10.580;2023-06-10T10:43:49;28.00;4.20
4279;DHT22;2153;47.744;10.580;2023-06-10T10:46:17;28.30;26.60
4279;DHT22;2153;47.744;10.580;2023-06-10T10:48:44;28.80;22.90
4279;DHT22;2153;47.744;10.580;2023-06-10T10:51:11;28.80;13.00
4279;DHT22;2153;47.744;10.580;2023-06-10T10:53:38;27.80;6.60
4279;DHT22;2153;47.744;10.580;2023-06-10T10:56:06;26.90;57.70
4279;DHT22;2153;47.744;10.580;2023-06-10T10:58:35;27.30;52.80
4279;DHT22;2153;47.744;10.580;2023-06-10T11:01:10;28.10;70.20
4279;DHT22;2153;47.744;10.580;2023-06-10T11:03:43;28.10;16.80
4279;DHT22;2153;47.744;10.580;2023-06-10T11:06:12;27.80;58.20
4279;DHT22;2153;47.744;10.580;2023-06-10T11:08:46;28.10;56.80
4279;DHT22;2153;47.744;10.580;2023-06-10T11:11:22;28.70;39.70
4279;DHT22;2153;47.744;10.580;2023-06-10T11:14:06;29.00;28.90
4279;DHT22;2153;47.744;10.580;2023-06-10T11:16:39;28.60;4.50
4279;DHT22;2153;47.744;10.580;2023-06-10T11:19:07;28.60;18.10
4279;DHT22;2153;47.744;10.580;2023-06-10T11:21:45;28.20;1.00
4279;DHT22;2153;47.744;10.580;2023-06-10T11:24:24;27.10;1.00
4279;DHT22;2153;47.744;10.580;2023-06-10T11:26:51;26.90;1.00
4279;DHT22;2153;47.744;10.580;2023-06-10T11:29:19;27.30;1.00
4279;DHT22;2153;47.744;10.580;2023-06-10T11:31:49;27.30;1.00
4279;DHT22;2153;47.744;10.580;2023-06-10T11:34:22;26.40;1.00
4279;DHT22;2153;47.744;10.580;2023-06-10T11:36:51;25.30;5.40
4279;DHT22;2153;47.744;10.580;2023-06-10T11:39:19;24.30;44.20
4279;DHT22;2153;47.744;10.580;2023-06-10T11:41:46;24.40;57.10
4279;DHT22;2153;47.744;10.580;2023-06-10T11:44:14;25.50;62.10
4279;DHT22;2153;47.744;10.580;2023-06-10T11:46:42;26.60;43.70
4279;DHT22;2153;47.744;10.580;2023-06-10T11:49:09;27.60;19.40
4279;DHT22;2153;47.744;10.580;2023-06-10T11:51:36;28.10;4.00
4279;DHT22;2153;47.744;10.580;2023-06-10T11:54:05;28.50;1.00
4279;DHT22;2153;47.744;10.580;2023-06-10T11:56:32;29.00;10.80
4279;DHT22;2153;47.744;10.580;2023-06-10T11:59:00;29.00;1.00
4279;DHT22;2153;47.744;10.580;2023-06-10T12:01:30;28.00;4.70
4279;DHT22;2153;47.744;10.580;2023-06-10T12:03:59;27.80;30.60
4279;DHT22;2153;47.744;10.580;2023-06-10T12:06:26;28.30;28.20
4279;DHT22;2153;47.744;10.580;2023-06-10T12:08:54;28.30;1.00
4279;DHT22;2153;47.744;10.580;2023-06-10T12:11:22;28.20;1.00
4279;DHT22;2153;47.744;10.580;2023-06-10T12:13:49;28.30;1.00
4279;DHT22;2153;47.744;10.580;2023-06-10T12:16:17;28.10;1.00
4279;DHT22;2153;47.744;10.580;2023-06-10T12:18:46;28.00;1.00
4279;DHT22;2153;47.744;10.580;2023-06-10T12:21:24;28.60;1.00
4279;DHT22;2153;47.744;10.580;2023-06-10T12:24:01;28.40;1.00
4279;DHT22;2153;47.744;10.580;2023-06-10T12:26:40;28.60;11.80
4279;DHT22;2153;47.744;10.580;2023-06-10T12:29:20;29.00;1.00
4279;DHT22;2153;47.744;10.580;2023-06-10T12:32:02;28.90;1.00
4279;DHT22;2153;47.744;10.580;2023-06-10T12:34:37;29.10;1.00
4279;DHT22;2153;47.744;10.580;2023-06-10T12:37:10;28.50;1.00
4279;DHT22;2153;47.744;10.580;2023-06-10T12:39:39;28.10;1.50
4279;DHT22;2153;47.744;10.580;2023-06-10T12:42:08;28.50;34.40
4279;DHT22;2153;47.744;10.580;2023-06-10T12:44:38;28.80;1.00
4279;DHT22;2153;47.744;10.580;2023-06-10T12:47:09;28.40;1.00
4279;DHT22;2153;47.744;10.580;2023-06-10T12:49:37;28.00;1.00
4279;DHT22;2153;47.744;10.580;2023-06-10T12:52:06;28.10;8.30
4279;DHT22;2153;47.744;10.580;2023-06-10T12:54:34;28.80;17.80
4279;DHT22;2153;47.744;10.580;2023-06-10T12:57:01;28.50;1.00
4279;DHT22;2153;47.744;10.580;2023-06-10T12:59:27;27.60;3.30
4279;DHT22;2153;47.744;10.580;2023-06-10T13:01:54;27.50;1.00
4279;DHT22;2153;47.744;10.580;2023-06-10T13:04:21;27.60;1.00
4279;DHT22;2153;47.744;10.580;2023-06-10T13:06:48;26.90;1.00
4279;DHT22;2153;47.744;10.580;2023-06-10T13:09:16;26.40;5.50
4279;DHT22;2153;47.744;10.580;2023-06-10T13:11:43;26.00;1.00
4279;DHT22;2153;47.744;10.580;2023-06-10T13:14:10;26.20;8.90
4279;DHT22;2153;47.744;10.580;2023-06-10T13:16:37;26.50;6.70
4279;DHT22;2153;47.744;10.580;2023-06-10T13:19:04;26.70;20.10
4279;DHT22;2153;47.744;10.580;2023-06-10T13:21:32;26.90;1.00
4279;DHT22;2153;47.744;10.580;2023-06-10T13:23:59;27.50;21.50
4279;DHT22;2153;47.744;10.580;2023-06-10T13:26:27;28.20;8.60
4279;DHT22;2153;47.744;10.580;2023-06-10T13:28:54;28.20;1.00
4279;DHT22;2153;47.744;10.580;2023-06-10T13:31:20;27.60;3.70
4279;DHT22;2153;47.744;10.580;2023-06-10T13:33:47;27.00;1.00
4279;DHT22;2153;47.744;10.580;2023-06-10T13:36:14;26.40;14.30
4279;DHT22;2153;47.744;10.580;2023-06-10T13:38:40;26.10;14.00
4279;DHT22;2153;47.744;10.580;2023-06-10T13:41:07;25.40;16.40
4279;DHT22;2153;47.744;10.580;2023-06-10T13:43:36;24.60;41.20
4279;DHT22;2153;47.744;10.580;2023-06-10T13:46:03;24.50;50.60
4279;DHT22;2153;47.744;10.580;2023-06-10T13:48:30;25.40;55.00
4279;DHT22;2153;47.744;10.580;2023-06-10T13:50:57;24.90;32.60
4279;DHT22;2153;47.744;10.580;2023-06-10T13:53:24;25.90;85.00
4279;DHT22;2153;47.744;10.580;2023-06-10T13:55:51;27.20;53.20
4279;DHT22;2153;47.744;10.580;2023-06-10T13:58:18;27.80;27.10
4279;DHT22;2153;47.744;10.580;2023-06-10T14:00:46;28.00;8.90
4279;DHT22;2153;47.744;10.580;2023-06-10T14:03:13;28.30;1.00
4279;DHT22;2153;47.744;10.580;2023-06-10T14:05:40;27.80;1.00
4279;DHT22;2153;47.744;10.580;2023-06-10T14:08:07;26.30;2.80
4279;DHT22;2153;47.744;10.580;2023-06-10T14:10:33;26.30;22.50
4279;DHT22;2153;47.744;10.580;2023-06-10T14:13:00;26.80;6.20
4279;DHT22;2153;47.744;10.580;2023-06-10T14:15:26;25.90;8.40
4279;DHT22;2153;47.744;10.580;2023-06-10T14:17:54;24.90;31.70
4279;DHT22;2153;47.744;10.580;2023-06-10T14:20:21;24.80;24.70
4279;DHT22;2153;47.744;10.580;2023-06-10T14:22:48;25.40;46.40
4279;DHT22;2153;47.744;10.580;2023-06-10T14:25:15;25.90;10.40
4279;DHT22;2153;47.744;10.580;2023-06-10T14:27:43;26.20;16.90
4279;DHT22;2153;47.744;10.580;2023-06-10T14:30:10;26.70;18.40
4279;DHT22;2153;47.744;10.580;2023-06-10T14:32:37;27.20;31.40
4279;DHT22;2153;47.744;10.580;2023-06-10T14:35:05;27.00;1.00
4279;DHT22;2153;47.744;10.580;2023-06-10T14:37:32;26.80;1.00
4279;DHT22;2153;47.744;10.580;2023-06-10T14:39:59;26.80;1.00
4279;DHT22;2153;47.744;10.580;2023-06-10T14:42:25;26.00;1.00
4279;DHT22;2153;47.744;10.580;2023-06-10T14:44:52;25.50;5.00
4279;DHT22;2153;47.744;10.580;2023-06-10T14:47:18;25.50;8.30
4279;DHT22;2153;47.744;10.580;2023-06-10T14:49:45;25.30;10.90
4279;DHT22;2153;47.744;10.580;2023-06-10T14:52:13;26.00;13.90
4279;DHT22;2153;47.744;10.580;2023-06-10T14:54:40;26.40;31.70
4279;DHT22;2153;47.744;10.580;2023-06-10T14:57:06;27.10;7.60
4279;DHT22;2153;47.744;10.580;2023-06-10T14:59:33;27.30;1.00
4279;DHT22;2153;47.744;10.580;2023-06-10T15:02:00;27.50;10.40
4279;DHT22;2153;47.744;10.580;2023-06-10T15:04:27;27.60;1.00
4279;DHT22;2153;47.744;10.580;2023-06-10T15:06:54;27.00;1.00
4279;DHT22;2153;47.744;10.580;2023-06-10T15:09:22;26.60;1.00
4279;DHT22;2153;47.744;10.580;2023-06-10T15:11:48;26.80;1.00
4279;DHT22;2153;47.744;10.580;2023-06-10T15:14:15;26.20;1.00
4279;DHT22;2153;47.744;10.580;2023-06-10T15:16:42;25.90;15.90
4279;DHT22;2153;47.744;10.580;2023-06-10T15:19:08;26.30;26.60
4279;DHT22;2153;47.744;10.580;2023-06-10T15:21:35;26.70;2.70
4279;DHT22;2153;47.744;10.580;2023-06-10T15:24:02;26.40;7.70
4279;DHT22;2153;47.744;10.580;2023-06-10T15:26:30;26.00;19.50
4279;DHT22;2153;47.744;10.580;2023-06-10T15:28:57;26.40;16.80
4279;DHT22;2153;47.744;10.580;2023-06-10T15:31:29;26.50;13.00
4279;DHT22;2153;47.744;10.580;2023-06-10T15:33:55;25.80;5.30
4279;DHT22;2153;47.744;10.580;2023-06-10T15:36:22;25.20;27.70
4279;DHT22;2153;47.744;10.580;2023-06-10T15:38:49;25.10;21.40
4279;DHT22;2153;47.744;10.580;2023-06-10T15:41:15;24.40;39.40
4279;DHT22;2153;47.744;10.580;2023-06-10T15:43:43;24.10;42.20
4279;DHT22;2153;47.744;10.580;2023-06-10T15:46:10;24.40;61.40
4279;DHT22;2153;47.744;10.580;2023-06-10T15:48:37;24.70;87.90
4279;DHT22;2153;47.744;10.580;2023-06-10T15:51:03;25.10;65.80
4279;DHT22;2153;47.744;10.580;2023-06-10T15:53:30;25.60;62.40
4279;DHT22;2153;47.744;10.580;2023-06-10T15:55:56;25.20;34.40